Time;durP1;ratioP1;P1;durP2;ratioP2;P2;SDS_P1;SDS_P2;PMS_P1;PMS_P2;Temp;Humidity;BMP_temperature;BMP_pressure;BME280_temperature;BME280_humidity;BME280_pressure;Samples;Min_cycle;Max_cycle;Signal;HPM_P1;HPM_P2
2023/01/04 00:01:54;;;;;;;4.63;3.17;;;;;;;;;;5054105;28;20052;-88
2023/01/04 00:04:21;;;;;;;3.47;3.22;;;;;;;;;;5054254;28;20447;-88
2023/01/04 00:06:47;;;;;;;9.02;3.50;;;;;;;;;;5070743;28;20129;-88
2023/01/04 00:09:15;;;;;;;1.75;1.63;;;;;;;;;;5074335;28;20052;-87
2023/01/04 00:11:41;;;;;;;4.50;4.10;;;;;;;;;;5074229;28;20143;-88
2023/01/04 00:14:10;;;;;;;6.32;4.55;;;;;;;;;;5073889;28;20052;-88
2023/01/04 00:16:36;;;;;;;2.72;2.60;;;;;;;;;;5073931;28;20102;-88
2023/01/04 00:19:03;;;;;;;1.80;1.70;;;;;;;;;;5074059;28;20104;-87
2023/01/04 00:21:30;;;;;;;2.88;2.67;;;;;;;;;;5073710;28;20094;-87
2023/01/04 00:23:58;;;;;;;2.63;2.42;;;;;;;;;;5073587;28;20044;-88
2023/01/04 00:26:26;;;;;;;3.30;2.88;;;;;;;;;;5074142;28;20052;-88
2023/01/04 00:28:53;;;;;;;1.60;1.52;;;;;;;;;;5073832;28;20106;-88
2023/01/04 00:31:20;;;;;;;3.47;3.20;;;;;;;;;;5074029;28;20474;-88
2023/01/04 00:33:46;;;;;;;4.13;3.85;;;;;;;;;;5073690;28;20052;-88
2023/01/04 00:36:14;;;;;;;6.35;5.75;;;;;;;;;;5073732;28;20098;-88
2023/01/04 00:38:41;;;;;;;6.05;4.38;;;;;;;;;;5073573;28;20044;-88
2023/01/04 00:41:08;;;;;;;3.47;3.22;;;;;;;;;;5073475;28;20056;-88
2023/01/04 00:43:36;;;;;;;1.98;1.75;;;;;;;;;;5073269;28;20056;-88
2023/01/04 00:46:03;;;;;;;4.05;3.85;;;;;;;;;;5073266;28;20118;-88
2023/01/04 00:48:29;;;;;;;4.88;2.17;;;;;;;;;;5073588;28;20105;-88
2023/01/04 00:50:56;;;;;;;3.50;3.20;;;;;;;;;;5073541;28;20048;-88
2023/01/04 00:53:23;;;;;;;3.15;2.85;;;;;;;;;;5073384;28;20466;-88
2023/01/04 00:55:49;;;;;;;3.15;2.95;;;;;;;;;;5073412;28;20048;-88
2023/01/04 00:58:16;;;;;;;4.70;2.65;;;;;;;;;;5073354;28;20101;-88
2023/01/04 01:00:44;;;;;;;3.97;2.85;;;;;;;;;;5073206;28;20052;-88
2023/01/04 01:03:10;;;;;;;3.88;3.35;;;;;;;;;;5073058;28;20040;-87
2023/01/04 01:05:37;;;;;;;2.40;2.30;;;;;;;;;;5073178;28;20074;-88
2023/01/04 01:08:23;;;;;;;5.95;2.63;;;;;;;;;;5072861;28;20090;-88
2023/01/04 01:10:50;;;;;;;2.42;1.73;;;;;;;;;;5072771;28;20044;-88
2023/01/04 01:13:16;;;;;;;3.05;2.83;;;;;;;;;;5073098;28;20048;-87
2023/01/04 01:15:44;;;;;;;2.80;2.55;;;;;;;;;;5073172;28;20129;-88
2023/01/04 01:18:11;;;;;;;3.28;3.08;;;;;;;;;;5052813;28;20106;-88
2023/01/04 01:20:40;;;;;;;3.58;3.28;;;;;;;;;;5052748;28;20489;-88
2023/01/04 01:23:07;;;;;;;3.78;3.42;;;;;;;;;;5053014;28;20049;-88
2023/01/04 01:25:33;;;;;;;1.80;1.70;;;;;;;;;;5052729;28;20135;-88
2023/01/04 01:28:00;;;;;;;2.90;2.70;;;;;;;;;;5052578;28;20103;-88
2023/01/04 01:30:26;;;;;;;4.50;4.18;;;;;;;;;;5053063;28;20115;-88
2023/01/04 01:32:54;;;;;;;3.25;3.05;;;;;;;;;;5053006;28;20083;-88
2023/01/04 01:35:21;;;;;;;5.90;5.40;;;;;;;;;;5052493;28;20053;-88
2023/01/04 01:37:47;;;;;;;4.43;4.03;;;;;;;;;;5052759;28;20459;-88
2023/01/04 01:40:14;;;;;;;1.33;1.23;;;;;;;;;;5052579;28;20106;-87
2023/01/04 01:42:40;;;;;;;3.80;3.58;;;;;;;;;;5052660;28;20106;-88
2023/01/04 01:45:19;;;;;;;2.13;1.85;;;;;;;;;;5052378;28;20049;-88
2023/01/04 01:47:47;;;;;;;2.60;2.42;;;;;;;;;;5052745;28;20053;-88
2023/01/04 01:50:18;;;;;;;3.15;2.72;;;;;;;;;;5052700;28;20111;-88
2023/01/04 01:52:45;;;;;;;4.20;3.72;;;;;;;;;;5052400;28;20068;-88
2023/01/04 01:55:12;;;;;;;3.53;3.28;;;;;;;;;;5052289;28;20048;-88
2023/01/04 01:57:39;;;;;;;2.17;2.08;;;;;;;;;;5052363;28;20107;-88
2023/01/04 02:00:08;;;;;;;3.58;3.38;;;;;;;;;;5052460;28;20053;-88
2023/01/04 02:02:35;;;;;;;4.38;4.10;;;;;;;;;;5052271;28;20102;-87
2023/01/04 02:05:02;;;;;;;4.97;4.53;;;;;;;;;;5052554;28;20451;-88
2023/01/04 02:07:30;;;;;;;3.25;2.95;;;;;;;;;;5060233;28;20454;-88
2023/01/04 02:09:57;;;;;;;4.68;4.38;;;;;;;;;;5072150;28;20044;-87
2023/01/04 02:12:24;;;;;;;4.53;4.13;;;;;;;;;;5072179;28;20106;-88
2023/01/04 02:14:51;;;;;;;2.42;2.22;;;;;;;;;;5072158;28;20048;-87
2023/01/04 02:17:23;;;;;;;2.13;2.03;;;;;;;;;;5072173;28;20049;-88
2023/01/04 02:20:05;;;;;;;2.10;2.00;;;;;;;;;;5072393;28;20049;-88
2023/01/04 02:22:58;;;;;;;2.70;2.55;;;;;;;;;;5060454;28;20442;-88
2023/01/04 02:25:46;;;;;;;8.20;3.33;;;;;;;;;;5013794;28;20084;-87
2023/01/04 02:28:20;;;;;;;5.25;4.97;;;;;;;;;;5009303;28;20395;-88
2023/01/04 02:31:05;;;;;;;1.77;1.65;;;;;;;;;;5013952;28;20104;-88
2023/01/04 02:33:41;;;;;;;2.88;2.05;;;;;;;;;;5014186;28;20096;-88
2023/01/04 02:36:10;;;;;;;2.03;1.92;;;;;;;;;;5013832;28;20452;-87
2023/01/04 02:38:44;;;;;;;3.33;3.08;;;;;;;;;;5014076;28;20112;-87
2023/01/04 02:41:15;;;;;;;2.15;2.05;;;;;;;;;;5013690;28;20053;-87
2023/01/04 02:46:32;;;;;;;2.08;1.85;;;;;;;;;;5013795;28;20053;-88
2023/01/04 02:51:44;;;;;;;2.47;2.38;;;;;;;;;;5013717;28;20453;-88
2023/01/04 02:54:13;;;;;;;3.25;2.95;;;;;;;;;;5013383;28;20050;-88
2023/01/04 02:56:50;;;;;;;2.25;2.13;;;;;;;;;;5013708;28;20100;-88
2023/01/04 02:59:32;;;;;;;4.75;3.55;;;;;;;;;;5013417;28;20050;-87
2023/01/04 03:07:46;;;;;;;3.42;3.22;;;;;;;;;;5075269;28;20123;-88
2023/01/04 03:10:15;;;;;;;2.90;2.70;;;;;;;;;;5075173;28;20048;-88
2023/01/04 03:12:43;;;;;;;1.80;1.70;;;;;;;;;;5075099;28;20107;-88
2023/01/04 03:15:11;;;;;;;1.90;1.80;;;;;;;;;;5075248;28;20055;-87
2023/01/04 03:17:41;;;;;;;1.45;1.35;;;;;;;;;;5075021;28;20170;-88
2023/01/04 03:20:11;;;;;;;8.00;3.40;;;;;;;;;;5074981;28;20139;-88
2023/01/04 03:36:32;;;;;;;5.13;4.72;;;;;;;;;;5074877;28;20101;-87
2023/01/04 03:50:04;;;;;;;1.75;1.65;;;;;;;;;;5074483;28;20473;-87
2023/01/04 03:52:33;;;;;;;1.88;1.77;;;;;;;;;;5074784;28;20101;-88
2023/01/04 03:55:00;;;;;;;1.60;1.40;;;;;;;;;;5074348;28;20091;-88
2023/01/04 03:57:27;;;;;;;2.85;2.58;;;;;;;;;;5069095;28;20474;-87
2023/01/04 03:59:57;;;;;;;2.30;1.85;;;;;;;;;;5054431;28;20049;-87
2023/01/04 04:02:25;;;;;;;10.65;4.72;;;;;;;;;;5054636;28;20048;-87
2023/01/04 04:10:21;;;;;;;4.13;3.92;;;;;;;;;;5054109;28;20155;-87
2023/01/04 04:12:48;;;;;;;5.07;4.72;;;;;;;;;;5054329;28;20049;-87
2023/01/04 04:15:14;;;;;;;3.03;2.83;;;;;;;;;;5053808;28;20080;-88
2023/01/04 04:17:41;;;;;;;2.15;2.05;;;;;;;;;;5054303;28;20432;-88
2023/01/04 04:20:08;;;;;;;4.75;2.88;;;;;;;;;;5054074;28;20053;-88
2023/01/04 04:22:34;;;;;;;4.30;3.95;;;;;;;;;;5053554;28;20551;-88
2023/01/04 04:25:02;;;;;;;2.10;2.00;;;;;;;;;;5053844;28;20079;-88
2023/01/04 04:27:29;;;;;;;5.13;4.80;;;;;;;;;;5054138;28;20463;-88
2023/01/04 04:29:55;;;;;;;3.47;3.28;;;;;;;;;;5053693;28;20051;-87
2023/01/04 04:32:22;;;;;;;3.63;3.38;;;;;;;;;;5053676;28;20111;-87
2023/01/04 04:34:48;;;;;;;4.28;3.17;;;;;;;;;;5053497;28;20481;-88
2023/01/04 04:37:15;;;;;;;1.95;1.85;;;;;;;;;;5053722;28;20118;-88
2023/01/04 04:39:41;;;;;;;2.45;2.30;;;;;;;;;;5053307;28;20562;-88
2023/01/04 04:42:08;;;;;;;6.03;5.03;;;;;;;;;;5053532;28;20048;-88
2023/01/04 04:44:35;;;;;;;2.22;2.05;;;;;;;;;;5053083;28;20045;-88
2023/01/04 04:47:01;;;;;;;4.20;3.92;;;;;;;;;;5053302;28;20049;-88
2023/01/04 04:49:29;;;;;;;3.08;2.95;;;;;;;;;;5053172;28;20459;-88
2023/01/04 04:51:55;;;;;;;3.13;2.83;;;;;;;;;;5053067;28;20045;-88
2023/01/04 04:54:22;;;;;;;4.38;4.00;;;;;;;;;;5053522;28;20114;-88
2023/01/04 04:56:49;;;;;;;4.78;3.33;;;;;;;;;;5053473;28;20053;-88
2023/01/04 04:59:17;;;;;;;2.97;2.17;;;;;;;;;;5052938;28;20098;-88
2023/01/04 05:01:43;;;;;;;1.95;1.85;;;;;;;;;;5053161;28;20052;-87
2023/01/04 05:04:15;;;;;;;2.72;2.53;;;;;;;;;;5052970;28;20092;-88
2023/01/04 05:06:41;;;;;;;2.10;1.98;;;;;;;;;;5052870;28;20134;-88
2023/01/04 05:09:08;;;;;;;4.75;2.00;;;;;;;;;;5053185;28;20056;-87
2023/01/04 05:14:19;;;;;;;1.80;1.67;;;;;;;;;;5052905;28;20185;-87
2023/01/04 05:16:46;;;;;;;1.98;1.88;;;;;;;;;;5052720;28;20385;-88
2023/01/04 05:19:12;;;;;;;2.70;2.50;;;;;;;;;;5052830;28;20095;-88
2023/01/04 05:21:39;;;;;;;3.40;3.20;;;;;;;;;;5052557;28;20115;-87
2023/01/04 05:24:06;;;;;;;3.80;3.60;;;;;;;;;;5053032;28;20114;-87
2023/01/04 05:26:32;;;;;;;3.78;3.53;;;;;;;;;;5052601;28;20554;-87
2023/01/04 05:28:59;;;;;;;3.45;3.17;;;;;;;;;;5052788;28;20045;-88
2023/01/04 05:31:26;;;;;;;5.47;5.28;;;;;;;;;;5052756;28;20056;-88
2023/01/04 05:33:52;;;;;;;2.70;2.45;;;;;;;;;;5052684;28;20053;-88
2023/01/04 05:36:19;;;;;;;3.70;3.33;;;;;;;;;;5052373;28;20045;-89
2023/01/04 05:38:45;;;;;;;2.17;2.05;;;;;;;;;;5052402;28;20550;-88
2023/01/04 05:43:52;;;;;;;4.07;3.65;;;;;;;;;;5052116;28;20048;-88
2023/01/04 05:46:18;;;;;;;8.43;4.15;;;;;;;;;;5052528;28;20541;-89
2023/01/04 05:48:46;;;;;;;4.75;4.10;;;;;;;;;;5052662;28;20128;-87
2023/01/04 05:51:13;;;;;;;3.60;2.90;;;;;;;;;;5052881;28;20110;-89
2023/01/04 05:53:39;;;;;;;3.72;3.17;;;;;;;;;;5052624;28;20049;-87
2023/01/04 05:56:06;;;;;;;3.45;1.58;;;;;;;;;;5062231;28;20037;-87
2023/01/04 05:58:33;;;;;;;2.00;1.90;;;;;;;;;;5076861;28;20044;-87
2023/01/04 06:00:59;;;;;;;2.83;2.63;;;;;;;;;;5076512;28;20538;-87
2023/01/04 06:03:26;;;;;;;4.47;3.42;;;;;;;;;;5076735;28;20055;-86
2023/01/04 06:05:54;;;;;;;4.07;3.15;;;;;;;;;;5076256;28;20048;-87
2023/01/04 06:08:20;;;;;;;5.00;4.63;;;;;;;;;;5076383;28;20049;-89
2023/01/04 06:10:52;;;;;;;1.98;1.88;;;;;;;;;;5076731;28;20126;-89
2023/01/04 06:13:19;;;;;;;3.83;3.45;;;;;;;;;;5076190;28;20049;-87
2023/01/04 06:15:45;;;;;;;1.20;1.13;;;;;;;;;;5076181;28;20139;-86
2023/01/04 06:18:12;;;;;;;4.25;3.08;;;;;;;;;;5076240;28;20110;-87
2023/01/04 06:20:38;;;;;;;7.03;3.03;;;;;;;;;;5076572;28;20056;-86
2023/01/04 06:23:07;;;;;;;3.35;3.05;;;;;;;;;;5073155;28;20076;-89
2023/01/04 06:25:34;;;;;;;1.73;1.63;;;;;;;;;;5073124;28;20106;-87
2023/01/04 06:28:00;;;;;;;2.15;2.05;;;;;;;;;;5076278;28;20045;-87
2023/01/04 06:30:27;;;;;;;2.17;2.08;;;;;;;;;;5070558;28;20491;-87
2023/01/04 06:32:54;;;;;;;1.58;1.48;;;;;;;;;;5075270;28;20561;-87
2023/01/04 06:35:21;;;;;;;1.30;1.23;;;;;;;;;;5075480;28;20044;-87
2023/01/04 06:37:47;;;;;;;3.40;2.90;;;;;;;;;;5070684;28;20049;-88
2023/01/04 06:40:15;;;;;;;3.60;3.30;;;;;;;;;;5065853;28;20052;-88
2023/01/04 06:42:44;;;;;;;2.53;2.40;;;;;;;;;;5064667;28;20049;-89
2023/01/04 06:45:11;;;;;;;1.98;1.88;;;;;;;;;;5069739;28;20087;-89
2023/01/04 06:47:37;;;;;;;1.95;1.85;;;;;;;;;;5054996;28;20049;-87
2023/01/04 06:50:04;;;;;;;2.55;2.33;;;;;;;;;;5072410;28;20040;-87
2023/01/04 06:52:31;;;;;;;1.52;1.42;;;;;;;;;;5075562;28;20080;-87
2023/01/04 06:54:57;;;;;;;3.28;2.83;;;;;;;;;;5068284;28;20452;-89
2023/01/04 06:57:26;;;;;;;3.15;2.97;;;;;;;;;;5055260;28;20053;-88
2023/01/04 06:59:52;;;;;;;3.28;2.97;;;;;;;;;;5054605;28;20118;-88
2023/01/04 07:02:19;;;;;;;4.88;3.90;;;;;;;;;;5054768;28;20053;-88
2023/01/04 07:04:45;;;;;;;3.78;3.13;;;;;;;;;;5055024;28;20053;-88
2023/01/04 07:07:12;;;;;;;1.60;1.50;;;;;;;;;;5054773;28;20560;-88
2023/01/04 07:09:40;;;;;;;3.55;3.13;;;;;;;;;;5064097;28;20048;-87
2023/01/04 07:12:07;;;;;;;4.65;4.35;;;;;;;;;;5068170;28;20519;-88
2023/01/04 07:14:35;;;;;;;3.90;3.60;;;;;;;;;;5074270;28;20048;-88
2023/01/04 07:17:01;;;;;;;4.28;4.03;;;;;;;;;;5054830;28;20098;-88
2023/01/04 07:19:28;;;;;;;3.13;2.85;;;;;;;;;;5054304;28;20483;-87
2023/01/04 07:21:54;;;;;;;3.45;3.25;;;;;;;;;;5069429;28;20120;-88
2023/01/04 07:24:21;;;;;;;4.68;4.28;;;;;;;;;;5074781;28;20055;-88
2023/01/04 07:26:47;;;;;;;6.10;4.28;;;;;;;;;;5074393;28;20480;-88
2023/01/04 07:29:14;;;;;;;5.70;5.20;;;;;;;;;;5074514;28;20056;-87
2023/01/04 07:31:42;;;;;;;5.22;4.78;;;;;;;;;;5074570;28;20052;-88
2023/01/04 07:34:09;;;;;;;3.83;3.50;;;;;;;;;;5074581;28;20052;-87
2023/01/04 07:36:35;;;;;;;3.80;3.55;;;;;;;;;;5071969;28;20056;-87
2023/01/04 07:39:02;;;;;;;5.18;2.80;;;;;;;;;;5074163;28;20106;-88
2023/01/04 07:41:28;;;;;;;4.80;4.50;;;;;;;;;;5073773;28;20060;-87
2023/01/04 07:43:55;;;;;;;5.63;4.88;;;;;;;;;;5073668;28;20097;-86
2023/01/04 07:46:21;;;;;;;5.10;4.70;;;;;;;;;;5070339;28;20048;-86
2023/01/04 07:48:49;;;;;;;5.28;3.50;;;;;;;;;;5070207;28;20408;-85
2023/01/04 07:51:16;;;;;;;6.30;5.72;;;;;;;;;;5053633;28;20052;-86
2023/01/04 07:53:42;;;;;;;6.25;4.80;;;;;;;;;;5056675;28;20064;-86
2023/01/04 07:56:09;;;;;;;5.93;4.20;;;;;;;;;;5073721;28;20045;-87
2023/01/04 07:58:38;;;;;;;2.25;2.15;;;;;;;;;;5072221;28;20044;-87
2023/01/04 08:01:08;;;;;;;3.50;2.78;;;;;;;;;;5053598;28;20053;-87
2023/01/04 08:03:34;;;;;;;3.63;3.20;;;;;;;;;;5054826;28;20098;-87
2023/01/04 08:06:04;;;;;;;4.43;2.33;;;;;;;;;;5053461;28;20071;-87
2023/01/04 08:08:31;;;;;;;3.75;3.55;;;;;;;;;;5064219;28;20123;-87
2023/01/04 08:11:00;;;;;;;4.38;4.18;;;;;;;;;;5073636;28;20097;-87
2023/01/04 08:13:27;;;;;;;1.85;1.75;;;;;;;;;;5076236;28;20049;-88
2023/01/04 08:15:54;;;;;;;4.13;3.75;;;;;;;;;;5073888;28;20101;-88
2023/01/04 08:18:20;;;;;;;5.20;3.95;;;;;;;;;;5063730;28;20048;-89
2023/01/04 08:20:47;;;;;;;9.07;4.43;;;;;;;;;;5072905;28;20129;-88
2023/01/04 08:23:15;;;;;;;4.97;4.57;;;;;;;;;;5061769;28;20052;-87
2023/01/04 08:25:41;;;;;;;4.95;3.92;;;;;;;;;;5070825;28;20048;-87
2023/01/04 08:28:08;;;;;;;8.98;6.97;;;;;;;;;;5071343;28;20557;-87
2023/01/04 08:30:34;;;;;;;5.72;5.30;;;;;;;;;;5073443;28;20052;-87
2023/01/04 08:33:01;;;;;;;3.42;3.15;;;;;;;;;;5073373;28;20048;-87
2023/01/04 08:35:28;;;;;;;4.97;4.55;;;;;;;;;;5073375;28;20048;-87
2023/01/04 08:37:54;;;;;;;6.05;5.50;;;;;;;;;;5073560;28;20044;-87
2023/01/04 08:40:22;;;;;;;5.07;4.63;;;;;;;;;;5073030;28;20056;-87
2023/01/04 08:42:49;;;;;;;3.13;2.90;;;;;;;;;;5073418;28;20102;-87
2023/01/04 08:45:15;;;;;;;4.95;3.50;;;;;;;;;;5060721;28;20049;-87
2023/01/04 08:47:42;;;;;;;8.45;7.68;;;;;;;;;;5064663;28;20484;-87
2023/01/04 08:50:08;;;;;;;8.00;6.10;;;;;;;;;;5073071;28;20048;-87
2023/01/04 08:52:35;;;;;;;4.53;4.13;;;;;;;;;;5072798;28;20082;-87
2023/01/04 08:55:02;;;;;;;5.50;5.00;;;;;;;;;;5072906;28;20052;-87
2023/01/04 08:57:30;;;;;;;4.28;3.83;;;;;;;;;;5072785;28;20460;-87
2023/01/04 08:59:56;;;;;;;6.22;5.05;;;;;;;;;;5063379;28;20467;-87
2023/01/04 09:02:23;;;;;;;7.18;6.45;;;;;;;;;;5052967;28;20098;-87
2023/01/04 09:04:50;;;;;;;10.57;7.38;;;;;;;;;;5052941;28;20049;-88
2023/01/04 09:07:17;;;;;;;7.68;6.35;;;;;;;;;;5052876;28;20052;-88
2023/01/04 09:09:44;;;;;;;6.50;5.63;;;;;;;;;;5053162;28;20119;-88
2023/01/04 09:12:10;;;;;;;8.25;5.80;;;;;;;;;;5053255;28;20447;-89
2023/01/04 09:14:38;;;;;;;5.85;5.43;;;;;;;;;;5058628;28;20055;-88
2023/01/04 09:17:05;;;;;;;7.75;6.85;;;;;;;;;;5072891;28;20567;-88
2023/01/04 09:19:32;;;;;;;6.68;5.75;;;;;;;;;;5072819;28;20412;-89
2023/01/04 09:21:58;;;;;;;8.07;5.53;;;;;;;;;;5073104;28;20041;-88
2023/01/04 09:24:25;;;;;;;15.73;9.85;;;;;;;;;;5072933;28;20644;-89
2023/01/04 09:26:52;;;;;;;6.28;5.78;;;;;;;;;;5072589;28;20044;-89
2023/01/04 09:29:18;;;;;;;8.25;7.55;;;;;;;;;;5072488;28;20055;-88
2023/01/04 09:31:46;;;;;;;8.43;6.57;;;;;;;;;;5072378;28;20094;-88
2023/01/04 09:34:13;;;;;;;7.10;6.53;;;;;;;;;;5072788;28;20450;-89
2023/01/04 09:36:39;;;;;;;4.05;3.75;;;;;;;;;;5072587;28;20098;-88
2023/01/04 09:39:06;;;;;;;11.35;10.18;;;;;;;;;;5072728;28;20044;-88
2023/01/04 09:41:34;;;;;;;1.50;1.40;;;;;;;;;;5052577;28;20045;-89
2023/01/04 09:44:03;;;;;;;15.02;9.88;;;;;;;;;;5052513;28;20053;-87
2023/01/04 09:46:32;;;;;;;11.50;7.15;;;;;;;;;;5072076;28;20044;-88
2023/01/04 09:49:07;;;;;;;20.52;10.77;;;;;;;;;;5072711;28;20098;-89
2023/01/04 09:51:37;;;;;;;13.35;12.10;;;;;;;;;;5072796;28;20052;-88
2023/01/04 09:54:06;;;;;;;18.70;10.48;;;;;;;;;;5072569;28;20098;-88
2023/01/04 09:56:34;;;;;;;19.65;11.13;;;;;;;;;;5072697;28;20053;-89
2023/01/04 09:59:01;;;;;;;18.90;9.73;;;;;;;;;;5072184;28;20048;-89
2023/01/04 10:01:32;;;;;;;15.85;11.35;;;;;;;;;;5072606;28;20462;-88
2023/01/04 10:04:00;;;;;;;10.98;9.07;;;;;;;;;;5072431;28;20052;-88
2023/01/04 10:06:28;;;;;;;15.30;9.90;;;;;;;;;;5072143;28;20048;-88
2023/01/04 10:08:56;;;;;;;12.52;11.45;;;;;;;;;;5072533;28;20056;-89
2023/01/04 10:11:31;;;;;;;10.60;9.80;;;;;;;;;;5072650;28;20113;-88
2023/01/04 10:14:04;;;;;;;15.45;13.55;;;;;;;;;;5072407;28;20051;-88
2023/01/04 10:16:37;;;;;;;14.77;12.75;;;;;;;;;;5072261;28;20462;-88
2023/01/04 10:19:07;;;;;;;6.93;6.43;;;;;;;;;;5072223;28;20052;-87
2023/01/04 10:21:37;;;;;;;11.32;10.20;;;;;;;;;;5072327;28;20094;-88
2023/01/04 10:24:12;;;;;;;13.55;11.48;;;;;;;;;;5072409;28;20080;-88
2023/01/04 10:26:42;;;;;;;12.57;11.38;;;;;;;;;;5072249;28;20063;-87
2023/01/04 10:29:25;;;;;;;18.25;15.73;;;;;;;;;;5072012;28;20057;-88
2023/01/04 10:31:54;;;;;;;20.55;11.63;;;;;;;;;;5072361;28;20048;-88
2023/01/04 10:34:23;;;;;;;15.48;13.73;;;;;;;;;;5072510;28;20048;-89
2023/01/04 10:36:53;;;;;;;11.90;10.77;;;;;;;;;;5072547;28;20244;-90
2023/01/04 10:39:22;;;;;;;15.45;13.80;;;;;;;;;;5072263;28;20052;-89
2023/01/04 10:41:50;;;;;;;20.92;16.05;;;;;;;;;;5071370;28;20049;-89
2023/01/04 10:44:19;;;;;;;21.75;13.35;;;;;;;;;;5074189;28;20882;-89
2023/01/04 10:46:49;;;;;;;14.50;12.35;;;;;;;;;;5057359;28;20053;-88
2023/01/04 10:49:17;;;;;;;17.92;11.13;;;;;;;;;;5055587;28;20045;-88
2023/01/04 10:51:47;;;;;;;21.73;12.63;;;;;;;;;;5055661;28;20049;-88
2023/01/04 10:54:18;;;;;;;16.27;9.68;;;;;;;;;;5055806;28;20106;-89
2023/01/04 10:56:47;;;;;;;14.52;11.73;;;;;;;;;;5055897;28;20107;-88
2023/01/04 10:59:16;;;;;;;18.50;11.25;;;;;;;;;;5055850;28;20107;-89
2023/01/04 11:01:45;;;;;;;14.52;13.18;;;;;;;;;;5072617;28;20101;-88
2023/01/04 11:04:13;;;;;;;12.00;9.88;;;;;;;;;;5075437;28;20056;-89
2023/01/04 11:06:42;;;;;;;17.27;13.80;;;;;;;;;;5075750;28;20044;-89
2023/01/04 11:09:11;;;;;;;15.10;11.73;;;;;;;;;;5075439;28;20048;-89
2023/01/04 11:11:41;;;;;;;8.75;7.93;;;;;;;;;;5059294;28;20053;-90
2023/01/04 11:14:09;;;;;;;16.40;10.07;;;;;;;;;;5055589;28;20049;-90
2023/01/04 11:16:35;;;;;;;14.73;11.68;;;;;;;;;;5055489;28;20412;-89
2023/01/04 11:19:03;;;;;;;15.07;13.25;;;;;;;;;;5055405;28;20045;-89
2023/01/04 11:21:37;;;;;;;9.65;8.82;;;;;;;;;;5055470;28;20564;-91
2023/01/04 11:24:06;;;;;;;8.75;7.07;;;;;;;;;;5055147;28;20052;-89
2023/01/04 11:26:34;;;;;;;11.68;10.77;;;;;;;;;;5058018;28;20393;-90
2023/01/04 11:29:05;;;;;;;11.00;9.38;;;;;;;;;;5056971;28;20048;-89
2023/01/04 11:31:36;;;;;;;9.07;8.27;;;;;;;;;;5055351;28;20053;-89
2023/01/04 11:34:03;;;;;;;12.80;11.77;;;;;;;;;;5055276;28;20053;-89
2023/01/04 11:36:36;;;;;;;12.40;10.80;;;;;;;;;;5055197;28;20091;-89
2023/01/04 11:39:04;;;;;;;8.45;7.72;;;;;;;;;;5054960;28;20408;-89
2023/01/04 11:41:30;;;;;;;14.02;9.52;;;;;;;;;;5054600;28;20065;-90
2023/01/04 11:43:58;;;;;;;7.65;6.32;;;;;;;;;;5060813;28;20094;-90
2023/01/04 11:46:26;;;;;;;13.50;7.35;;;;;;;;;;5071986;28;20131;-90
2023/01/04 11:48:53;;;;;;;8.02;7.28;;;;;;;;;;5074535;28;20037;-91
2023/01/04 11:51:25;;;;;;;6.05;5.50;;;;;;;;;;5074973;28;20048;-90
2023/01/04 11:53:58;;;;;;;7.43;6.82;;;;;;;;;;5074406;28;20102;-90
2023/01/04 11:56:26;;;;;;;9.50;8.95;;;;;;;;;;5074217;28;20377;-90
2023/01/04 11:59:13;;;;;;;6.45;5.88;;;;;;;;;;5074603;28;20102;-91
2023/01/04 12:01:43;;;;;;;7.40;6.80;;;;;;;;;;5069438;28;20052;-91
2023/01/04 12:04:11;;;;;;;9.13;6.50;;;;;;;;;;5074498;28;20139;-91
2023/01/04 12:06:40;;;;;;;5.53;5.13;;;;;;;;;;5061787;28;20049;-90
2023/01/04 12:09:12;;;;;;;4.22;3.83;;;;;;;;;;5069669;28;20102;-89
2023/01/04 12:11:41;;;;;;;3.60;3.42;;;;;;;;;;5074486;28;20156;-90
2023/01/04 12:14:14;;;;;;;7.53;6.80;;;;;;;;;;5074370;28;20101;-89
2023/01/04 12:16:47;;;;;;;10.90;5.10;;;;;;;;;;5074155;28;20113;-89
2023/01/04 12:19:14;;;;;;;6.75;5.57;;;;;;;;;;5073952;28;20102;-90
2023/01/04 12:21:43;;;;;;;6.28;5.78;;;;;;;;;;5073776;28;20098;-90
2023/01/04 12:24:10;;;;;;;5.82;4.82;;;;;;;;;;5074180;28;20045;-91
2023/01/04 12:26:40;;;;;;;5.88;5.38;;;;;;;;;;5074032;28;20106;-90
2023/01/04 12:29:31;;;;;;;6.45;6.05;;;;;;;;;;5073962;28;20093;-90
2023/01/04 12:32:12;;;;;;;7.97;7.43;;;;;;;;;;5058534;28;20102;-91
2023/01/04 12:34:40;;;;;;;6.63;6.22;;;;;;;;;;5073530;28;20052;-90
2023/01/04 12:37:07;;;;;;;3.85;3.60;;;;;;;;;;5074100;28;20389;-91
2023/01/04 12:39:42;;;;;;;4.70;4.47;;;;;;;;;;5073879;28;20048;-90
2023/01/04 12:42:10;;;;;;;4.60;3.72;;;;;;;;;;5073433;28;20048;-90
2023/01/04 12:44:55;;;;;;;4.45;4.22;;;;;;;;;;5073320;28;20048;-91
2023/01/04 12:50:25;;;;;;;7.05;6.53;;;;;;;;;;5073567;28;20623;-90
2023/01/04 12:52:52;;;;;;;6.72;6.20;;;;;;;;;;5053336;28;20102;-90
2023/01/04 12:55:40;;;;;;;6.28;6.00;;;;;;;;;;5053583;28;20053;-90
2023/01/04 12:58:22;;;;;;;7.78;7.10;;;;;;;;;;5053300;28;20138;-90
2023/01/04 13:01:07;;;;;;;7.80;7.20;;;;;;;;;;5053692;28;20050;-90
2023/01/04 13:03:34;;;;;;;6.80;6.30;;;;;;;;;;5053450;28;20451;-91
2023/01/04 13:06:04;;;;;;;8.27;7.72;;;;;;;;;;5066808;28;20170;-90
2023/01/04 13:08:32;;;;;;;6.85;6.28;;;;;;;;;;5059830;28;20048;-90
2023/01/04 13:11:00;;;;;;;7.03;6.50;;;;;;;;;;5073264;28;20094;-90
2023/01/04 13:13:31;;;;;;;6.45;5.95;;;;;;;;;;5073681;28;20125;-90
2023/01/04 13:16:10;;;;;;;5.90;5.50;;;;;;;;;;5059546;28;20049;-90
2023/01/04 13:18:38;;;;;;;5.05;4.65;;;;;;;;;;5066074;28;20127;-89
2023/01/04 13:21:10;;;;;;;6.93;6.32;;;;;;;;;;5072163;28;20427;-89
2023/01/04 13:23:37;;;;;;;5.47;5.00;;;;;;;;;;5072717;28;20075;-89
2023/01/04 13:26:22;;;;;;;9.05;8.52;;;;;;;;;;5073038;28;20044;-90
2023/01/04 13:28:49;;;;;;;5.78;5.38;;;;;;;;;;5073175;28;20052;-90
2023/01/04 13:31:15;;;;;;;4.25;3.95;;;;;;;;;;5073026;28;20044;-89
2023/01/04 13:33:45;;;;;;;3.85;3.22;;;;;;;;;;5072488;28;20056;-89
2023/01/04 13:36:13;;;;;;;5.28;5.00;;;;;;;;;;5072855;28;20048;-89
2023/01/04 13:38:40;;;;;;;4.60;4.38;;;;;;;;;;5073142;28;20052;-89
2023/01/04 13:41:18;;;;;;;4.85;4.53;;;;;;;;;;5072430;28;20056;-89
2023/01/04 13:43:53;;;;;;;4.15;3.97;;;;;;;;;;5072994;28;20121;-89
2023/01/04 13:46:20;;;;;;;5.60;5.20;;;;;;;;;;5068127;28;20064;-89
2023/01/04 13:48:47;;;;;;;3.70;3.55;;;;;;;;;;5052918;28;20106;-89
2023/01/04 13:51:17;;;;;;;3.72;3.35;;;;;;;;;;5052647;28;20053;-89
2023/01/04 13:53:51;;;;;;;4.82;4.53;;;;;;;;;;5052738;28;20216;-89
2023/01/04 13:56:19;;;;;;;5.35;4.95;;;;;;;;;;5060020;28;20549;-89
2023/01/04 13:58:45;;;;;;;5.07;4.85;;;;;;;;;;5071927;28;20113;-88
2023/01/04 14:01:13;;;;;;;4.43;4.10;;;;;;;;;;5070777;28;20056;-89
2023/01/04 14:03:41;;;;;;;4.60;4.32;;;;;;;;;;5072152;28;20044;-88
2023/01/04 14:06:13;;;;;;;5.80;5.40;;;;;;;;;;5072469;28;20048;-88
2023/01/04 14:08:42;;;;;;;5.55;5.18;;;;;;;;;;5071969;28;20554;-88
2023/01/04 14:11:57;;;;;;;4.90;4.45;;;;;;;;;;5072548;28;20412;-89
2023/01/04 14:14:06;;;;;;;6.07;5.82;;;;;;;;;;5071959;28;20067;-89
2023/01/04 14:16:32;;;;;;;4.05;3.67;;;;;;;;;;5072518;28;20057;-88
2023/01/04 14:19:19;;;;;;;5.70;5.30;;;;;;;;;;5075540;28;20098;-89
2023/01/04 14:21:45;;;;;;;4.53;4.30;;;;;;;;;;5069461;28;20037;-88
2023/01/04 14:24:27;;;;;;;3.55;3.05;;;;;;;;;;5056248;28;20094;-88
2023/01/04 14:26:55;;;;;;;5.40;5.00;;;;;;;;;;5055777;28;20053;-89
2023/01/04 14:29:22;;;;;;;5.72;5.32;;;;;;;;;;5055869;28;20045;-89
2023/01/04 14:31:50;;;;;;;8.32;5.95;;;;;;;;;;5055429;28;20060;-89
2023/01/04 14:34:16;;;;;;;5.45;5.05;;;;;;;;;;5055679;28;20053;-88
2023/01/04 14:36:43;;;;;;;4.68;4.40;;;;;;;;;;5055942;28;20118;-88
2023/01/04 14:39:12;;;;;;;7.10;4.43;;;;;;;;;;5057740;28;20053;-88
2023/01/04 14:41:39;;;;;;;4.93;4.47;;;;;;;;;;5055595;28;20053;-88
2023/01/04 14:44:11;;;;;;;5.25;4.93;;;;;;;;;;5055731;28;20045;-88
2023/01/04 14:46:37;;;;;;;5.78;4.38;;;;;;;;;;5055396;28;20071;-88
2023/01/04 14:49:04;;;;;;;4.72;4.43;;;;;;;;;;5055272;28;20053;-89
2023/01/04 14:51:32;;;;;;;4.47;4.28;;;;;;;;;;5065393;28;20045;-89
2023/01/04 14:53:59;;;;;;;5.57;5.18;;;;;;;;;;5075473;28;20068;-88
2023/01/04 14:56:25;;;;;;;4.32;3.92;;;;;;;;;;5060811;28;20057;-89
2023/01/04 14:58:52;;;;;;;3.75;3.45;;;;;;;;;;5055352;28;20447;-89
2023/01/04 15:01:19;;;;;;;5.25;4.88;;;;;;;;;;5055716;28;20083;-89
2023/01/04 15:03:46;;;;;;;6.10;5.60;;;;;;;;;;5075341;28;20106;-88
2023/01/04 15:06:12;;;;;;;6.03;5.68;;;;;;;;;;5055413;28;20057;-89
2023/01/04 15:08:39;;;;;;;4.45;4.15;;;;;;;;;;5074586;28;20049;-88
2023/01/04 15:11:06;;;;;;;3.35;3.15;;;;;;;;;;5075197;28;20102;-88
2023/01/04 15:13:35;;;;;;;3.95;3.40;;;;;;;;;;5055640;28;20065;-88
2023/01/04 15:16:01;;;;;;;5.32;5.00;;;;;;;;;;5054994;28;20052;-88
2023/01/04 15:18:29;;;;;;;4.22;3.95;;;;;;;;;;5054805;28;20049;-88
2023/01/04 15:20:56;;;;;;;7.05;6.70;;;;;;;;;;5055293;28;20451;-89
2023/01/04 15:23:22;;;;;;;4.80;3.72;;;;;;;;;;5054642;28;20049;-88
2023/01/04 15:25:48;;;;;;;3.90;3.60;;;;;;;;;;5054750;28;20053;-89
2023/01/04 15:28:15;;;;;;;5.38;5.05;;;;;;;;;;5064092;28;20056;-89
2023/01/04 15:30:42;;;;;;;4.03;3.83;;;;;;;;;;5074216;28;20155;-89
2023/01/04 15:33:08;;;;;;;5.18;4.85;;;;;;;;;;5074688;28;20048;-88
2023/01/04 15:35:36;;;;;;;6.00;5.60;;;;;;;;;;5074943;28;20057;-88
2023/01/04 15:38:03;;;;;;;6.47;5.97;;;;;;;;;;5065595;28;20488;-88
2023/01/04 15:40:29;;;;;;;5.97;5.47;;;;;;;;;;5054424;28;20118;-88